Time;durP1;ratioP1;P1;durP2;ratioP2;P2;SDS_P1;SDS_P2;PMS_P1;PMS_P2;Temp;Humidity;BMP_temperature;BMP_pressure;BME280_temperature;BME280_humidity;BME280_pressure;Samples;Min_cycle;Max_cycle;Signal;HPM_P1;HPM_P2
2023/12/08 00:00:01;;;;;;;7.95;4.00;;;16.90;44.20;;;;;;4974786;28;20209;-83
2023/12/08 00:02:28;;;;;;;6.05;4.22;;;16.90;44.30;;;;;;4976346;28;20702;-83
2023/12/08 00:04:55;;;;;;;7.25;4.32;;;16.90;44.30;;;;;;4974790;28;20289;-83
2023/12/08 00:07:22;;;;;;;5.10;4.28;;;16.90;44.10;;;;;;4974479;28;20689;-82
2023/12/08 00:09:51;;;;;;;5.40;4.20;;;16.80;44.20;;;;;;4975205;28;20288;-82
2023/12/08 00:12:17;;;;;;;5.50;4.35;;;16.80;44.30;;;;;;4975947;28;20594;-83
2023/12/08 00:14:45;;;;;;;4.28;3.70;;;16.90;44.10;;;;;;4974827;28;20205;-86
2023/12/08 00:17:12;;;;;;;4.95;4.10;;;16.80;44.30;;;;;;4975970;28;20218;-85
2023/12/08 00:19:40;;;;;;;8.07;4.38;;;16.80;44.30;;;;;;4974826;28;20201;-81
2023/12/08 00:22:07;;;;;;;4.47;4.00;;;16.80;44.40;;;;;;4974468;28;20645;-86
2023/12/08 00:24:34;;;;;;;5.35;3.90;;;16.70;44.10;;;;;;4974805;28;20206;-83
2023/12/08 00:27:02;;;;;;;4.80;3.92;;;16.70;44.20;;;;;;4974404;28;20284;-84
2023/12/08 00:29:30;;;;;;;5.40;3.97;;;16.70;44.10;;;;;;4975035;28;20202;-82
2023/12/08 00:31:57;;;;;;;5.65;4.00;;;16.60;44.00;;;;;;4974253;28;20213;-83
2023/12/08 00:34:24;;;;;;;5.38;4.20;;;16.60;44.10;;;;;;4974323;28;20202;-84
2023/12/08 00:36:51;;;;;;;4.55;3.65;;;16.60;43.90;;;;;;4974439;28;20225;-84
2023/12/08 00:39:18;;;;;;;8.48;4.10;;;16.60;44.10;;;;;;4974626;28;20209;-83
2023/12/08 00:41:45;;;;;;;5.72;4.03;;;16.60;44.10;;;;;;4978921;28;20202;-82
2023/12/08 00:44:13;;;;;;;4.72;3.95;;;16.50;44.00;;;;;;4978571;28;20214;-84
2023/12/08 00:46:40;;;;;;;4.60;3.97;;;16.50;44.00;;;;;;4978466;28;20226;-82
2023/12/08 00:49:07;;;;;;;4.45;4.05;;;16.50;44.00;;;;;;4977944;28;20202;-83
2023/12/08 00:51:34;;;;;;;4.18;3.78;;;16.50;44.10;;;;;;4978497;28;20213;-83
2023/12/08 00:54:01;;;;;;;4.90;4.18;;;16.50;43.90;;;;;;4978277;28;20198;-83
2023/12/08 00:56:28;;;;;;;4.88;4.22;;;16.50;44.50;;;;;;4978494;28;20280;-83
2023/12/08 00:58:55;;;;;;;4.43;3.88;;;16.40;43.70;;;;;;4979483;28;20230;-83
2023/12/08 01:01:23;;;;;;;5.53;4.07;;;16.40;43.90;;;;;;4979947;28;20637;-83
2023/12/08 01:03:51;;;;;;;4.65;4.15;;;16.30;43.90;;;;;;4978021;28;20218;-83
2023/12/08 01:06:17;;;;;;;4.72;4.22;;;16.40;44.10;;;;;;4977768;28;20233;-83
2023/12/08 01:08:46;;;;;;;4.72;4.18;;;16.40;44.20;;;;;;4977607;28;20661;-83
2023/12/08 01:11:13;;;;;;;4.35;3.95;;;16.40;43.90;;;;;;4977660;28;20209;-83
2023/12/08 01:16:32;;;;;;;5.05;3.75;;;16.30;44.00;;;;;;4958784;28;20241;-80
2023/12/08 01:18:59;;;;;;;4.40;4.00;;;16.30;44.00;;;;;;4959073;29;20555;-80
2023/12/08 01:21:26;;;;;;;5.55;3.95;;;16.30;44.00;;;;;;4959052;29;20203;-80
2023/12/08 01:23:53;;;;;;;6.10;4.35;;;16.30;43.80;;;;;;4959095;29;20242;-80
2023/12/08 01:26:20;;;;;;;4.90;4.28;;;16.30;43.70;;;;;;4959998;28;20309;-80
2023/12/08 01:28:47;;;;;;;5.22;4.20;;;16.30;43.70;;;;;;4975264;28;20211;-79
2023/12/08 01:31:14;;;;;;;4.22;3.83;;;16.30;43.70;;;;;;4960409;28;20229;-79
2023/12/08 01:33:42;;;;;;;5.20;3.70;;;16.30;43.80;;;;;;4973857;28;20294;-79
2023/12/08 01:36:10;;;;;;;5.20;4.13;;;16.30;44.00;;;;;;4973502;28;20226;-79
2023/12/08 01:38:37;;;;;;;4.50;4.10;;;16.30;43.90;;;;;;4973375;28;20253;-79
2023/12/08 01:41:04;;;;;;;4.40;4.00;;;16.30;44.10;;;;;;4975311;28;20254;-79
2023/12/08 01:43:31;;;;;;;4.47;3.90;;;16.20;44.00;;;;;;4958673;29;20318;-79
2023/12/08 01:45:58;;;;;;;4.70;3.88;;;16.30;44.10;;;;;;4974335;28;20229;-79
2023/12/08 01:48:25;;;;;;;5.60;4.05;;;16.20;44.10;;;;;;4965285;28;20193;-79
2023/12/08 01:50:53;;;;;;;4.15;3.83;;;16.20;44.10;;;;;;4979834;28;20198;-79
2023/12/08 01:53:20;;;;;;;4.90;3.65;;;16.20;44.00;;;;;;4973528;28;20584;-79
2023/12/08 01:55:47;;;;;;;4.15;3.70;;;16.20;44.20;;;;;;4958497;29;20704;-79
2023/12/08 01:58:14;;;;;;;4.47;3.97;;;16.20;44.00;;;;;;4957011;29;20206;-79
2023/12/08 02:00:41;;;;;;;4.15;3.67;;;16.10;44.00;;;;;;4972939;28;20202;-79
2023/12/08 02:03:08;;;;;;;4.80;3.92;;;16.10;44.70;;;;;;4973074;28;20309;-79
2023/12/08 02:05:35;;;;;;;3.65;3.30;;;16.10;44.20;;;;;;4958344;29;20662;-79
2023/12/08 02:08:04;;;;;;;4.10;3.70;;;16.10;44.20;;;;;;4972932;28;20207;-79
2023/12/08 02:10:31;;;;;;;4.05;3.58;;;16.10;44.20;;;;;;4973125;28;20230;-79
2023/12/08 02:12:59;;;;;;;4.07;3.67;;;16.10;44.30;;;;;;4956922;29;20195;-79
2023/12/08 02:15:26;;;;;;;4.13;3.70;;;16.10;44.30;;;;;;4956998;29;20238;-79
2023/12/08 02:17:53;;;;;;;4.05;3.65;;;16.10;44.20;;;;;;4957125;29;20297;-79
2023/12/08 02:20:21;;;;;;;4.60;4.15;;;16.10;44.20;;;;;;4956688;29;20202;-79
2023/12/08 02:22:48;;;;;;;3.75;3.45;;;16.10;44.20;;;;;;4956692;29;20210;-79
2023/12/08 02:25:16;;;;;;;3.95;3.45;;;16.10;44.30;;;;;;4956749;29;20207;-79
2023/12/08 02:27:43;;;;;;;3.85;3.45;;;16.00;44.30;;;;;;4956338;29;20227;-79
2023/12/08 02:30:11;;;;;;;3.85;3.55;;;16.00;44.40;;;;;;4940699;29;20573;-79
2023/12/08 02:32:40;;;;;;;4.93;3.70;;;16.00;44.30;;;;;;4958420;28;20290;-79
2023/12/08 02:35:08;;;;;;;4.13;3.70;;;16.00;44.30;;;;;;4957095;29;20218;-79
2023/12/08 02:37:36;;;;;;;3.83;3.50;;;16.00;44.20;;;;;;4972696;28;20232;-79
2023/12/08 02:40:05;;;;;;;3.85;3.40;;;16.00;44.30;;;;;;4972905;28;20293;-79
2023/12/08 02:42:34;;;;;;;3.65;3.35;;;16.00;44.30;;;;;;4940960;28;20585;-79
2023/12/08 02:45:01;;;;;;;4.03;3.45;;;16.00;44.40;;;;;;4972593;28;20712;-79
2023/12/08 02:47:28;;;;;;;3.92;3.42;;;16.00;44.40;;;;;;4940637;29;20313;-79
2023/12/08 02:49:55;;;;;;;4.03;3.30;;;16.00;44.40;;;;;;4956436;29;20213;-79
2023/12/08 02:52:22;;;;;;;3.60;3.30;;;16.00;44.50;;;;;;4956651;29;20625;-80
2023/12/08 02:54:49;;;;;;;3.42;3.13;;;15.90;44.30;;;;;;4973139;28;20199;-80
2023/12/08 02:57:16;;;;;;;3.60;3.30;;;16.00;44.50;;;;;;4973462;28;20223;-80
2023/12/08 02:59:44;;;;;;;3.83;3.47;;;16.00;44.50;;;;;;4972719;28;20696;-80
2023/12/08 03:02:12;;;;;;;3.90;3.60;;;15.90;44.30;;;;;;4956208;28;20241;-79
2023/12/08 03:04:39;;;;;;;3.70;3.40;;;15.90;44.30;;;;;;4972674;28;20584;-79
2023/12/08 03:07:06;;;;;;;3.92;3.60;;;15.90;44.40;;;;;;4972039;28;20277;-80
2023/12/08 03:09:33;;;;;;;4.00;3.60;;;15.90;44.40;;;;;;4955618;29;20201;-80
2023/12/08 03:12:00;;;;;;;4.07;3.40;;;15.90;44.40;;;;;;4971812;28;20674;-80
2023/12/08 03:14:27;;;;;;;4.13;3.72;;;15.90;44.30;;;;;;4940020;29;20203;-80
2023/12/08 03:16:56;;;;;;;4.00;3.60;;;15.90;44.30;;;;;;4940193;29;20219;-79
2023/12/08 03:19:22;;;;;;;3.38;3.03;;;15.90;44.30;;;;;;4955958;29;20202;-79
2023/12/08 03:21:49;;;;;;;3.60;3.30;;;15.90;44.40;;;;;;4956975;29;20253;-79
2023/12/08 03:24:16;;;;;;;3.78;3.47;;;15.90;44.30;;;;;;4940262;29;20226;-79
2023/12/08 03:26:44;;;;;;;3.78;3.35;;;15.90;44.40;;;;;;4955584;29;20650;-79
2023/12/08 03:29:11;;;;;;;3.70;3.40;;;15.80;44.30;;;;;;4956007;29;20226;-79
2023/12/08 03:31:38;;;;;;;3.58;3.25;;;15.90;44.50;;;;;;4955707;29;20206;-79
2023/12/08 03:34:07;;;;;;;3.95;3.55;;;15.80;44.40;;;;;;4956040;29;20230;-79
2023/12/08 03:36:33;;;;;;;3.65;3.30;;;15.80;44.40;;;;;;4956446;29;20274;-79
2023/12/08 03:39:01;;;;;;;4.40;3.40;;;15.80;44.50;;;;;;4956037;29;20200;-79
2023/12/08 03:41:27;;;;;;;3.78;3.40;;;15.80;44.50;;;;;;4956140;29;20191;-79
2023/12/08 03:43:55;;;;;;;4.00;3.60;;;15.80;44.50;;;;;;4956345;29;20223;-79
2023/12/08 03:46:22;;;;;;;3.33;3.03;;;15.80;44.50;;;;;;4972252;28;20218;-79
2023/12/08 03:48:49;;;;;;;3.80;3.40;;;15.80;44.60;;;;;;4956883;29;20261;-80
2023/12/08 03:51:17;;;;;;;3.58;3.20;;;15.70;44.30;;;;;;4955627;29;20238;-80
2023/12/08 03:53:44;;;;;;;3.50;3.20;;;15.70;44.50;;;;;;4939206;29;20226;-80
2023/12/08 03:56:11;;;;;;;3.65;3.35;;;15.70;44.40;;;;;;4971779;28;20218;-80
2023/12/08 03:58:38;;;;;;;3.15;2.85;;;15.70;44.50;;;;;;4955376;28;20209;-80
2023/12/08 04:01:06;;;;;;;3.72;3.40;;;15.80;44.50;;;;;;4971330;28;20637;-80
2023/12/08 04:03:33;;;;;;;3.60;3.15;;;15.70;44.40;;;;;;4972039;28;20218;-80
2023/12/08 04:06:00;;;;;;;4.13;3.38;;;15.70;44.50;;;;;;4955229;29;20222;-80
2023/12/08 04:08:29;;;;;;;3.42;3.13;;;15.70;44.40;;;;;;4939458;29;20301;-80
2023/12/08 04:10:55;;;;;;;3.25;2.97;;;15.70;44.40;;;;;;4938883;29;20254;-80
2023/12/08 04:13:22;;;;;;;3.15;2.90;;;15.70;44.60;;;;;;4954832;29;20206;-80
2023/12/08 04:15:49;;;;;;;3.45;3.15;;;15.70;44.40;;;;;;4970953;28;20230;-80
2023/12/08 04:18:16;;;;;;;3.85;3.45;;;15.70;44.40;;;;;;4971105;28;20203;-79
2023/12/08 04:20:43;;;;;;;3.50;3.20;;;15.70;44.60;;;;;;4970926;28;20206;-79
2023/12/08 04:23:10;;;;;;;3.60;3.30;;;15.60;44.90;;;;;;4955067;29;20250;-79
2023/12/08 04:25:38;;;;;;;3.10;2.80;;;15.50;45.00;;;;;;4955438;29;20207;-79
2023/12/08 04:28:06;;;;;;;3.70;3.30;;;15.50;45.10;;;;;;4955353;29;20203;-79
2023/12/08 04:30:33;;;;;;;3.47;2.95;;;15.40;45.30;;;;;;4956269;28;20222;-80
2023/12/08 04:33:00;;;;;;;3.35;3.05;;;15.40;45.30;;;;;;4955355;29;20206;-80
2023/12/08 04:35:27;;;;;;;3.38;3.08;;;15.40;45.30;;;;;;4955898;29;20199;-80
2023/12/08 04:37:54;;;;;;;3.38;2.97;;;15.40;45.30;;;;;;4974862;28;20254;-79
2023/12/08 04:40:22;;;;;;;2.90;2.70;;;15.50;45.30;;;;;;4959136;29;20206;-79
2023/12/08 04:42:50;;;;;;;3.47;3.17;;;15.50;45.20;;;;;;4955456;29;20202;-79
2023/12/08 04:45:17;;;;;;;3.67;3.38;;;15.50;45.10;;;;;;4955650;29;20460;-79
2023/12/08 04:47:44;;;;;;;3.35;3.05;;;15.60;45.10;;;;;;4955295;29;20218;-79
2023/12/08 04:50:11;;;;;;;3.20;2.95;;;15.60;45.10;;;;;;4955042;29;20290;-79
2023/12/08 04:52:37;;;;;;;3.10;2.80;;;15.60;45.10;;;;;;4954967;29;20211;-79
2023/12/08 04:55:05;;;;;;;3.33;3.03;;;15.60;45.10;;;;;;4955061;29;20210;-79
2023/12/08 04:57:32;;;;;;;3.65;3.03;;;15.60;45.10;;;;;;4955709;29;20221;-79
2023/12/08 05:00:01;;;;;;;3.50;3.20;;;15.60;45.10;;;;;;4940858;29;20646;-79
2023/12/08 05:02:28;;;;;;;3.65;3.15;;;15.60;45.10;;;;;;4956550;28;20206;-79
2023/12/08 05:04:55;;;;;;;3.30;2.90;;;15.60;45.00;;;;;;4954769;29;20225;-79
2023/12/08 05:07:22;;;;;;;3.40;3.03;;;15.60;45.10;;;;;;4954819;28;20258;-79
2023/12/08 05:09:50;;;;;;;3.08;2.83;;;15.60;45.10;;;;;;4970464;28;20195;-79
2023/12/08 05:12:17;;;;;;;3.42;3.13;;;15.60;45.10;;;;;;4970541;28;20199;-79
2023/12/08 05:14:43;;;;;;;3.30;3.00;;;15.60;45.10;;;;;;4970940;28;20207;-79
2023/12/08 05:17:11;;;;;;;3.00;2.80;;;15.60;45.20;;;;;;4954338;29;20229;-79
2023/12/08 05:19:38;;;;;;;3.38;3.10;;;15.70;45.40;;;;;;4954405;29;20218;-79
2023/12/08 05:22:05;;;;;;;3.38;3.08;;;15.60;45.30;;;;;;4954700;29;20215;-79
2023/12/08 05:24:32;;;;;;;3.17;2.90;;;15.60;45.20;;;;;;4971044;28;20230;-79
2023/12/08 05:26:59;;;;;;;3.00;2.78;;;15.60;45.00;;;;;;4973292;28;20693;-80
2023/12/08 05:29:26;;;;;;;3.33;3.03;;;15.70;45.00;;;;;;4958820;29;20199;-80
2023/12/08 05:31:53;;;;;;;3.20;2.90;;;15.80;44.60;;;;;;4969111;29;20202;-80
2023/12/08 05:34:21;;;;;;;3.25;2.95;;;15.90;44.40;;;;;;4974258;28;20199;-78
2023/12/08 05:36:48;;;;;;;3.58;3.15;;;15.90;44.40;;;;;;4974835;28;20233;-78
2023/12/08 05:39:16;;;;;;;3.40;3.10;;;16.00;44.40;;;;;;4973324;28;20662;-78
2023/12/08 05:41:43;;;;;;;3.30;2.88;;;16.00;44.40;;;;;;4941277;29;20205;-78
2023/12/08 05:44:10;;;;;;;3.13;2.92;;;16.00;44.30;;;;;;4973003;28;20222;-78
2023/12/08 05:46:37;;;;;;;3.60;3.30;;;16.00;44.10;;;;;;4941127;29;20701;-78
2023/12/08 05:49:04;;;;;;;3.40;3.10;;;16.10;44.20;;;;;;4973507;28;20199;-78
2023/12/08 05:51:32;;;;;;;3.20;2.90;;;16.10;44.10;;;;;;4973236;28;20203;-78
2023/12/08 05:53:59;;;;;;;3.38;3.10;;;16.20;43.90;;;;;;4957670;28;20622;-78
2023/12/08 05:56:27;;;;;;;3.63;3.33;;;16.20;43.80;;;;;;4941487;29;20304;-78
2023/12/08 05:58:54;;;;;;;3.50;3.20;;;16.20;43.60;;;;;;4957597;28;20199;-78
2023/12/08 06:01:21;;;;;;;3.58;3.28;;;16.20;43.60;;;;;;4957268;29;20543;-78
2023/12/08 06:03:48;;;;;;;3.30;3.00;;;16.30;43.70;;;;;;4973017;28;20274;-79
2023/12/08 06:06:16;;;;;;;4.45;2.90;;;16.30;43.60;;;;;;4973434;28;20215;-79
2023/12/08 06:08:44;;;;;;;3.67;3.35;;;16.30;43.50;;;;;;4941010;29;20199;-79
2023/12/08 06:11:11;;;;;;;3.35;3.05;;;16.30;43.40;;;;;;4956936;28;20234;-80
2023/12/08 06:13:38;;;;;;;3.20;2.90;;;16.30;43.40;;;;;;4973280;28;20591;-80
2023/12/08 06:16:06;;;;;;;4.22;3.15;;;16.30;43.40;;;;;;4973389;28;20227;-80
2023/12/08 06:18:33;;;;;;;3.42;3.13;;;16.30;43.40;;;;;;4972924;28;20253;-80
2023/12/08 06:21:00;;;;;;;2.90;2.70;;;16.40;43.50;;;;;;4957321;29;20205;-80
2023/12/08 06:23:27;;;;;;;3.38;3.08;;;16.40;43.40;;;;;;4972997;28;20684;-80
2023/12/08 06:25:56;;;;;;;3.33;3.03;;;16.40;43.40;;;;;;4973172;28;20230;-80
2023/12/08 06:28:23;;;;;;;3.60;3.13;;;16.40;43.50;;;;;;4957328;29;20574;-81
2023/12/08 06:30:50;;;;;;;3.47;3.17;;;16.40;43.20;;;;;;4973082;28;20213;-81
2023/12/08 06:33:17;;;;;;;3.33;3.03;;;16.40;44.00;;;;;;4957391;28;20205;-81
2023/12/08 06:35:44;;;;;;;3.30;3.10;;;16.40;43.40;;;;;;4957086;29;20218;-81
2023/12/08 06:38:11;;;;;;;3.20;2.92;;;16.40;43.40;;;;;;4957200;28;20553;-81
2023/12/08 06:40:40;;;;;;;3.38;3.10;;;16.40;43.30;;;;;;4956743;29;20201;-81
2023/12/08 06:43:08;;;;;;;3.38;3.08;;;16.40;43.30;;;;;;4956446;28;20258;-81
2023/12/08 06:45:35;;;;;;;2.90;2.70;;;16.40;43.00;;;;;;4972161;28;20309;-81
2023/12/08 06:48:03;;;;;;;3.50;3.20;;;16.40;43.50;;;;;;4956076;29;20206;-81
2023/12/08 06:50:30;;;;;;;4.72;3.40;;;16.40;43.40;;;;;;4972407;28;20211;-80
2023/12/08 06:52:57;;;;;;;3.50;3.20;;;16.40;43.40;;;;;;4957176;29;20609;-80
2023/12/08 06:55:24;;;;;;;3.50;3.20;;;16.40;43.70;;;;;;4955896;29;20620;-80
2023/12/08 06:57:51;;;;;;;3.50;3.20;;;16.30;43.50;;;;;;4955799;29;20283;-80
2023/12/08 07:00:20;;;;;;;4.43;3.22;;;16.30;43.60;;;;;;4971827;28;20660;-80
2023/12/08 07:02:47;;;;;;;3.40;3.10;;;16.30;43.60;;;;;;4955993;29;20258;-80
2023/12/08 07:05:19;;;;;;;3.33;3.08;;;16.30;43.70;;;;;;4971577;28;20223;-80
2023/12/08 07:07:47;;;;;;;3.20;2.95;;;16.30;43.70;;;;;;4972681;28;20214;-80
2023/12/08 07:10:15;;;;;;;3.28;2.97;;;16.30;43.60;;;;;;4955880;29;20537;-80
2023/12/08 07:12:43;;;;;;;2.90;2.70;;;16.40;43.70;;;;;;4957238;29;20733;-80
2023/12/08 07:15:11;;;;;;;3.40;3.10;;;16.40;43.60;;;;;;5005243;22;20236;-83
2023/12/08 07:17:39;;;;;;;3.63;3.33;;;16.50;43.50;;;;;;5015345;28;20217;-83
2023/12/08 07:20:09;;;;;;;3.35;3.05;;;16.50;43.50;;;;;;5017132;28;20271;-83
2023/12/08 07:22:36;;;;;;;3.67;3.38;;;16.50;43.50;;;;;;5014609;28;20204;-83
2023/12/08 07:25:04;;;;;;;3.58;3.10;;;16.50;43.50;;;;;;5014544;28;20220;-83
2023/12/08 07:27:31;;;;;;;2.92;2.72;;;16.50;43.40;;;;;;5014861;28;20220;-83
2023/12/08 07:29:58;;;;;;;3.45;3.10;;;16.40;43.50;;;;;;5014693;28;20208;-83
2023/12/08 07:32:25;;;;;;;2.97;2.78;;;16.50;43.60;;;;;;5014216;28;20205;-84
2023/12/08 07:34:54;;;;;;;3.45;3.15;;;16.50;43.60;;;;;;5014157;28;20200;-84
2023/12/08 07:37:20;;;;;;;3.00;2.80;;;16.50;43.60;;;;;;5016890;28;20216;-83
2023/12/08 07:39:47;;;;;;;3.60;3.30;;;16.50;43.60;;;;;;5015511;28;20203;-83
2023/12/08 07:42:14;;;;;;;3.70;3.40;;;16.50;43.60;;;;;;5014030;28;20197;-83
2023/12/08 07:44:41;;;;;;;3.50;3.20;;;16.50;43.60;;;;;;5014123;28;20217;-83
2023/12/08 07:47:09;;;;;;;3.15;2.95;;;16.50;43.50;;;;;;5013871;28;20224;-84
2023/12/08 07:49:36;;;;;;;3.15;2.95;;;16.50;43.60;;;;;;5013810;28;20265;-84
2023/12/08 07:52:05;;;;;;;3.40;3.10;;;16.40;43.50;;;;;;4997848;28;20207;-84
2023/12/08 07:54:32;;;;;;;3.92;3.30;;;16.50;43.60;;;;;;5015338;28;20197;-84
2023/12/08 07:56:59;;;;;;;3.40;3.10;;;16.50;43.40;;;;;;5014341;28;20271;-84
2023/12/08 07:59:26;;;;;;;3.13;2.92;;;16.50;43.40;;;;;;4997222;28;20232;-84
2023/12/08 08:01:53;;;;;;;3.38;3.08;;;16.60;43.60;;;;;;5013831;28;20239;-84
2023/12/08 08:04:20;;;;;;;3.60;3.30;;;16.50;43.30;;;;;;5013715;28;20200;-84
2023/12/08 08:06:47;;;;;;;4.20;3.55;;;16.60;43.40;;;;;;5014019;28;20676;-84
2023/12/08 08:09:17;;;;;;;3.53;3.22;;;16.60;43.50;;;;;;5013574;28;20296;-83
2023/12/08 08:11:44;;;;;;;3.40;3.10;;;16.60;43.30;;;;;;5013081;28;20207;-83
2023/12/08 08:14:11;;;;;;;3.60;3.30;;;16.60;43.40;;;;;;5013176;28;20574;-81
2023/12/08 08:16:38;;;;;;;3.80;3.50;;;16.60;43.40;;;;;;5012989;28;20216;-82
2023/12/08 08:19:06;;;;;;;3.75;3.45;;;16.60;43.40;;;;;;5013349;28;20204;-82
2023/12/08 08:21:32;;;;;;;3.45;3.15;;;16.60;43.30;;;;;;5014288;28;20243;-82
2023/12/08 08:23:59;;;;;;;5.03;3.50;;;16.60;43.40;;;;;;5014305;28;20582;-82
2023/12/08 08:26:28;;;;;;;3.60;3.30;;;16.60;43.20;;;;;;5012664;28;20235;-82
2023/12/08 08:28:55;;;;;;;4.05;3.30;;;16.70;43.30;;;;;;5013897;28;20652;-82
2023/12/08 08:31:24;;;;;;;3.67;3.38;;;16.80;48.90;;;;;;5017975;28;20201;-82
2023/12/08 08:33:51;;;;;;;4.28;3.78;;;16.80;43.70;;;;;;5017831;28;20208;-82
2023/12/08 08:36:18;;;;;;;6.68;3.63;;;16.80;43.50;;;;;;5022895;28;20215;-82
2023/12/08 08:38:45;;;;;;;4.43;3.83;;;16.80;43.70;;;;;;5016754;28;20232;-82
2023/12/08 08:41:12;;;;;;;6.55;3.70;;;16.80;43.90;;;;;;5018809;28;20252;-82
2023/12/08 08:43:41;;;;;;;4.43;3.70;;;16.80;43.90;;;;;;5016625;28;20269;-83
2023/12/08 08:46:08;;;;;;;4.57;3.53;;;16.90;45.00;;;;;;5018995;28;20220;-82
2023/12/08 08:48:35;;;;;;;4.05;3.65;;;16.90;45.70;;;;;;5005933;28;20212;-83
2023/12/08 08:51:02;;;;;;;4.07;3.58;;;16.90;45.60;;;;;;5022807;28;20211;-82
2023/12/08 08:53:29;;;;;;;4.35;3.95;;;16.90;45.90;;;;;;5023475;28;20220;-82
2023/12/08 08:55:56;;;;;;;4.97;3.70;;;16.90;45.60;;;;;;5023647;28;20223;-82
2023/12/08 08:58:24;;;;;;;5.15;4.28;;;17.00;45.60;;;;;;5023394;28;20209;-82
2023/12/08 09:00:52;;;;;;;7.00;4.85;;;17.00;45.40;;;;;;5018503;28;20204;-81
2023/12/08 09:03:20;;;;;;;6.75;5.15;;;17.00;44.70;;;;;;5004557;28;20206;-82
2023/12/08 09:05:46;;;;;;;6.00;5.28;;;17.10;45.40;;;;;;5017379;28;20232;-82
2023/12/08 09:08:13;;;;;;;6.15;4.82;;;17.10;45.30;;;;;;5018066;28;20601;-82
2023/12/08 09:10:44;;;;;;;5.95;5.13;;;17.10;45.40;;;;;;5018002;28;20288;-82
2023/12/08 09:13:11;;;;;;;6.15;5.22;;;17.10;45.60;;;;;;5028654;28;20228;-81
2023/12/08 09:15:38;;;;;;;5.55;4.90;;;17.20;45.50;;;;;;5017097;28;20577;-82
2023/12/08 09:18:06;;;;;;;5.53;4.60;;;17.20;45.20;;;;;;5017414;28;20197;-82
2023/12/08 09:20:34;;;;;;;5.00;4.18;;;17.20;45.30;;;;;;5017262;28;20689;-82
2023/12/08 09:23:01;;;;;;;5.63;5.13;;;17.20;44.90;;;;;;5016622;28;20205;-82
2023/12/08 09:25:28;;;;;;;5.25;4.45;;;17.20;44.90;;;;;;5016896;28;20217;-81
2023/12/08 09:27:55;;;;;;;5.15;4.00;;;17.20;44.90;;;;;;5000903;28;20251;-82
2023/12/08 09:30:22;;;;;;;4.72;4.32;;;17.30;45.10;;;;;;5016636;28;20197;-82
2023/12/08 09:32:50;;;;;;;4.85;4.30;;;17.30;44.90;;;;;;5020784;28;20197;-81
2023/12/08 09:35:19;;;;;;;4.93;4.15;;;17.30;44.90;;;;;;5000263;28;20205;-80
2023/12/08 09:37:46;;;;;;;4.70;4.30;;;17.30;44.90;;;;;;5016991;28;20227;-81
2023/12/08 09:40:13;;;;;;;4.50;3.35;;;17.30;44.90;;;;;;5017320;28;20602;-82
2023/12/08 09:42:43;;;;;;;3.90;3.50;;;17.30;44.90;;;;;;5004666;28;20207;-80
2023/12/08 09:45:10;;;;;;;5.20;4.13;;;17.30;44.50;;;;;;5025251;28;20200;-81
2023/12/08 09:47:37;;;;;;;4.18;3.78;;;17.30;44.60;;;;;;5018394;28;20559;-81
2023/12/08 09:50:05;;;;;;;3.85;3.53;;;17.30;44.30;;;;;;5017322;28;20204;-82
2023/12/08 09:52:34;;;;;;;4.35;3.60;;;17.30;44.40;;;;;;5017161;28;20703;-82
2023/12/08 09:55:01;;;;;;;4.97;4.03;;;17.20;44.30;;;;;;5024316;28;20200;-82
2023/12/08 09:57:29;;;;;;;4.32;3.55;;;17.20;44.20;;;;;;5025177;28;20224;-82
2023/12/08 09:59:56;;;;;;;3.78;3.42;;;17.20;44.10;;;;;;5023802;28;20251;-82
2023/12/08 10:02:23;;;;;;;3.80;3.28;;;17.20;44.10;;;;;;5016138;28;20205;-82
2023/12/08 10:04:50;;;;;;;4.72;4.13;;;17.20;44.20;;;;;;5018212;28;20201;-81
2023/12/08 10:07:17;;;;;;;4.18;3.78;;;17.20;43.90;;;;;;5016885;28;20630;-80
2023/12/08 10:09:45;;;;;;;4.47;3.30;;;17.10;44.00;;;;;;5017456;28;20205;-82
2023/12/08 10:12:12;;;;;;;4.68;3.90;;;17.20;44.10;;;;;;5021827;28;20189;-81
2023/12/08 10:14:51;;;;;;;4.35;3.70;;;17.20;44.00;;;;;;5019435;28;20213;-80
2023/12/08 10:17:17;;;;;;;4.53;4.13;;;17.10;44.10;;;;;;5020932;28;20208;-80
2023/12/08 10:19:44;;;;;;;5.13;3.13;;;17.20;43.90;;;;;;5022422;28;20201;-82
2023/12/08 10:22:11;;;;;;;4.22;3.83;;;17.20;44.10;;;;;;5003807;28;20196;-81
2023/12/08 10:24:38;;;;;;;4.35;3.45;;;17.20;44.10;;;;;;5018322;28;20205;-82
2023/12/08 10:27:06;;;;;;;4.43;3.95;;;17.10;44.00;;;;;;5016056;28;20232;-84
2023/12/08 10:29:33;;;;;;;4.28;3.88;;;17.20;44.10;;;;;;5016482;28;20201;-83
2023/12/08 10:32:00;;;;;;;4.68;3.67;;;17.20;44.10;;;;;;5016466;28;20263;-84
2023/12/08 10:34:27;;;;;;;4.20;3.80;;;17.20;44.20;;;;;;5015714;28;20559;-82
2023/12/08 10:36:54;;;;;;;3.78;3.47;;;17.20;44.00;;;;;;5016774;28;20706;-83
2023/12/08 10:39:22;;;;;;;3.90;3.50;;;17.20;44.00;;;;;;5015900;28;20204;-84
2023/12/08 10:41:50;;;;;;;5.13;3.50;;;17.20;44.20;;;;;;5016816;28;20207;-84
2023/12/08 10:44:20;;;;;;;4.03;3.63;;;17.10;43.90;;;;;;5016925;28;20571;-82
2023/12/08 10:46:48;;;;;;;4.55;4.10;;;17.20;44.70;;;;;;5016308;28;20225;-83
2023/12/08 10:49:16;;;;;;;3.95;3.55;;;17.20;44.70;;;;;;5015645;28;20201;-81
2023/12/08 10:51:44;;;;;;;7.18;3.20;;;17.30;44.30;;;;;;5015505;28;20243;-81
2023/12/08 10:54:12;;;;;;;4.20;3.72;;;17.30;44.30;;;;;;5015440;28;20212;-83
2023/12/08 10:56:40;;;;;;;3.58;3.22;;;17.30;45.00;;;;;;5015698;28;20271;-84
2023/12/08 10:59:07;;;;;;;4.05;3.75;;;17.30;44.30;;;;;;5015201;28;20208;-84
2023/12/08 11:01:35;;;;;;;4.60;3.80;;;17.40;43.80;;;;;;5015163;28;20208;-84
2023/12/08 11:04:05;;;;;;;4.07;3.17;;;17.40;43.70;;;;;;5015381;28;20208;-83
2023/12/08 11:06:34;;;;;;;3.97;3.58;;;17.30;43.70;;;;;;4998008;28;20307;-83
2023/12/08 11:09:02;;;;;;;3.53;3.30;;;17.30;43.70;;;;;;5013982;28;20204;-83
2023/12/08 11:11:29;;;;;;;5.78;3.80;;;17.30;43.90;;;;;;5014232;28;20671;-83
2023/12/08 11:14:00;;;;;;;4.00;3.70;;;17.30;44.00;;;;;;5014572;28;20639;-83
2023/12/08 11:16:30;;;;;;;4.03;3.70;;;17.30;44.10;;;;;;5014270;28;20310;-83
2023/12/08 11:18:59;;;;;;;3.72;3.30;;;17.30;44.10;;;;;;5013896;28;20216;-83
2023/12/08 11:21:26;;;;;;;5.50;4.35;;;17.30;44.10;;;;;;4997919;28;20618;-83
2023/12/08 11:23:53;;;;;;;4.15;3.75;;;17.30;44.10;;;;;;5013766;28;20205;-83
2023/12/08 11:26:24;;;;;;;4.22;3.80;;;17.30;44.10;;;;;;5013847;28;20228;-83
2023/12/08 11:29:00;;;;;;;4.43;4.03;;;17.30;44.10;;;;;;5013679;28;20197;-83
2023/12/08 11:31:30;;;;;;;4.25;3.85;;;17.30;44.70;;;;;;5014760;28;20211;-83
2023/12/08 11:33:59;;;;;;;5.32;4.80;;;17.40;44.10;;;;;;5014874;28;20201;-83
2023/12/08 11:36:28;;;;;;;5.38;4.28;;;17.30;43.80;;;;;;5014003;28;20225;-83
2023/12/08 11:38:56;;;;;;;4.63;4.22;;;17.40;43.90;;;;;;4998318;28;20197;-83
2023/12/08 11:41:24;;;;;;;5.88;5.35;;;17.40;44.00;;;;;;5014203;28;20219;-84
2023/12/08 11:43:52;;;;;;;8.40;6.15;;;17.40;43.90;;;;;;5014522;28;20201;-84
2023/12/08 11:46:19;;;;;;;6.22;5.53;;;17.50;43.90;;;;;;5013930;28;20244;-84
2023/12/08 11:48:48;;;;;;;6.32;5.00;;;17.50;44.50;;;;;;5013790;28;20221;-84
2023/12/08 11:51:17;;;;;;;5.32;4.32;;;17.50;45.30;;;;;;5014539;28;20196;-83
2023/12/08 11:53:49;;;;;;;6.30;5.00;;;17.50;44.50;;;;;;5016489;28;20212;-82
2023/12/08 11:56:37;;;;;;;5.40;4.90;;;17.50;44.50;;;;;;5016497;28;20216;-82
2023/12/08 11:59:04;;;;;;;5.45;4.35;;;17.50;44.60;;;;;;5014365;28;20193;-84
2023/12/08 12:01:31;;;;;;;5.00;4.50;;;17.50;44.70;;;;;;5013738;28;20208;-85
2023/12/08 12:03:58;;;;;;;5.93;4.78;;;17.50;44.70;;;;;;5014030;28;20240;-86
2023/12/08 12:06:27;;;;;;;4.90;4.40;;;17.60;44.70;;;;;;5015971;28;20251;-88
2023/12/08 12:08:54;;;;;;;5.05;4.07;;;17.50;44.70;;;;;;5013872;28;20247;-83
2023/12/08 12:11:21;;;;;;;4.85;4.18;;;17.50;44.80;;;;;;5014667;28;20192;-83
2023/12/08 12:13:48;;;;;;;6.10;4.68;;;17.50;44.70;;;;;;5013725;28;20259;-82
2023/12/08 12:16:15;;;;;;;5.00;4.43;;;17.50;45.30;;;;;;5015036;28;20224;-83
2023/12/08 12:18:43;;;;;;;4.55;4.10;;;17.50;44.70;;;;;;5014080;28;20664;-82
2023/12/08 12:21:10;;;;;;;5.30;4.80;;;17.60;44.90;;;;;;5014524;28;20201;-83
2023/12/08 12:23:39;;;;;;;5.20;4.65;;;17.60;44.50;;;;;;5013880;28;20201;-81
2023/12/08 12:26:10;;;;;;;4.47;4.07;;;17.60;44.70;;;;;;5014802;28;20277;-82
2023/12/08 12:28:38;;;;;;;5.20;3.90;;;17.60;44.60;;;;;;5013950;28;20200;-81
2023/12/08 12:31:05;;;;;;;4.63;4.05;;;17.60;44.70;;;;;;5014378;28;20201;-81
2023/12/08 12:33:31;;;;;;;4.47;4.07;;;17.60;44.50;;;;;;5014217;28;20652;-83
2023/12/08 12:35:58;;;;;;;4.97;4.00;;;17.60;44.30;;;;;;5016830;28;20220;-84
2023/12/08 12:38:26;;;;;;;5.07;3.88;;;17.70;44.50;;;;;;5018616;28;20204;-83
2023/12/08 12:40:55;;;;;;;5.20;4.30;;;17.60;44.70;;;;;;5019445;28;20678;-81
2023/12/08 12:43:23;;;;;;;5.85;4.00;;;17.60;44.60;;;;;;5018634;28;20200;-82
2023/12/08 12:45:51;;;;;;;6.70;4.38;;;17.60;45.00;;;;;;5018469;28;20311;-81
2023/12/08 12:48:17;;;;;;;4.88;4.35;;;17.60;45.20;;;;;;5017862;28;20193;-83
2023/12/08 12:50:45;;;;;;;5.53;4.65;;;17.60;45.30;;;;;;5018406;28;20267;-82